Terminal Aerodrome Forecast
Issued by NWS

Home | Current Version | Previous Version | Graphics & Text | Print | Product List | Glossary On
Versions: 1 2 3 4 5 6 7 8 9 10 11 12 13
000
FTUS43 KMPX 150251 AAA
TAFRNH
TAF AMD
KRNH 150251Z 1503/1524 20008KT P6SM SKC
     FM151200 27004KT P6SM BKN100
     FM151500 29008KT P6SM VCSH SCT015 BKN025
     FM151800 32012G20KT P6SM -SN SCT010 BKN015
     FM152200 33016G23KT P6SM -SN SCT010 BKN015=

USA.gov is the U.S. government's official web portal to all federal, state and local government web resources and services.